Janet — 9HSL8 — position and weather

sailwx.info

Track history (hours):
 
Tides and Currents Weather Stations Pressure Air Temp Water Temp Dewpoint Dewpoint Depression Visibility Wind Speed Wind Dir Waves Ship Positions

Janet

Last reported at 2014-Oct-31 22:06 UTC. Time now 2014-Nov-01 09:46 UTC.
Position N 38°31' W 008°52'.

Length 90 m; draft 6 m.

Type: Cargo ship. MMSI: 256371000.

Date/timePositionNaut miles runAvg speedWind from/ knotsBaromVisibWave heightAir tempDewpointWater temp
2014-Oct-31 22:06N 38°31' W 008°52'0 0.0
2014-Oct-31 21:33N 38°31' W 008°52'0 0.0
2014-Oct-31 08:33N 38°31' W 008°52'0 0.0
2014-Oct-31 06:33N 38°31' W 008°52'0 0.0
2014-Oct-31 05:18N 38°31' W 008°52'0 0.0
2014-Oct-31 04:30N 38°31' W 008°52'0 0.0
2014-Oct-31 03:33N 38°31' W 008°52'0 0.0
2014-Oct-31 02:33N 38°31' W 008°52'0 0.0
2014-Oct-31 01:33N 38°31' W 008°52'0 0.0
2014-Oct-31 00:33N 38°31' W 008°52'0 0.0
2014-Oct-30 23:33N 38°31' W 008°52'0 0.0
2014-Oct-30 22:33N 38°31' W 008°52'0 0.0
2014-Oct-30 21:18N 38°31' W 008°52'1 0.9
2014-Oct-30 20:33N 38°30' W 008°52'1 0.2
2014-Oct-30 16:12N 38°30' W 008°51'0 0.0
2014-Oct-30 15:33N 38°30' W 008°51'0 0.0
2014-Oct-30 08:33N 38°30' W 008°51'0 0.0
2014-Oct-30 07:33N 38°30' W 008°51'0 0.0
2014-Oct-30 05:33N 38°30' W 008°51'0 0.0
2014-Oct-30 04:33N 38°30' W 008°51'0 0.0
2014-Oct-30 03:33N 38°30' W 008°51'0 0.0
2014-Oct-30 02:24N 38°30' W 008°51'0 0.0
2014-Oct-30 01:30N 38°30' W 008°51'0 0.0
2014-Oct-30 00:21N 38°30' W 008°51'0 0.0
2014-Oct-29 23:33N 38°30' W 008°51'0 0.0
2014-Oct-29 22:33N 38°30' W 008°51'3 2.3
2014-Oct-29 21:24N 38°31' W 008°54'0 0.0
2014-Oct-29 20:24N 38°31' W 008°54'0 0.0
2014-Oct-29 19:33N 38°31' W 008°54'0 0.1
2014-Oct-29 18:33N 38°31' W 008°54'0 0.0
2014-Oct-29 17:33N 38°31' W 008°54'0 0.0
2014-Oct-29 05:33N 38°31' W 008°54'0 0.0
2014-Oct-29 02:33N 38°31' W 008°54'0 0.0
2014-Oct-29 01:33N 38°31' W 008°54'0 0.0
2014-Oct-28 23:33N 38°31' W 008°54'0 0.0
2014-Oct-28 21:30N 38°31' W 008°54'0 0.0
2014-Oct-28 20:12N 38°31' W 008°54'0 0.0
2014-Oct-28 11:12N 38°31' W 008°54'0 0.0
2014-Oct-28 07:21N 38°31' W 008°54'0 0.0
2014-Oct-28 06:33N 38°31' W 008°54'0 0.1
2014-Oct-28 05:33N 38°31' W 008°54'0 0.0
2014-Oct-28 02:18N 38°31' W 008°54'0 0.0
2014-Oct-28 01:33N 38°31' W 008°54'0 0.0
2014-Oct-28 00:30N 38°31' W 008°54'0 0.0
2014-Oct-27 22:33N 38°31' W 008°54'0 0.0
2014-Oct-27 21:33N 38°31' W 008°54'0 0.0
2014-Oct-27 20:33N 38°31' W 008°54'0 0.0
2014-Oct-27 19:30N 38°31' W 008°54'0 0.0
2014-Oct-27 18:33N 38°31' W 008°54'0 0.1
2014-Oct-27 17:33N 38°31' W 008°54'0 0.0
2014-Oct-27 16:30N 38°31' W 008°54'0 0.0
2014-Oct-27 15:30N 38°31' W 008°54'0 0.0
2014-Oct-27 14:33N 38°31' W 008°54'7 6.5
2014-Oct-27 13:32N 38°26' W 008°60'3 3.0
2014-Oct-27 12:33N 38°23' W 009°02'3 3.3
2014-Oct-27 11:31N 38°20' W 009°04'0 0.5
2014-Oct-27 10:33N 38°20' W 009°03'1 0.6
2014-Oct-27 09:33N 38°21' W 009°03'1 0.5
2014-Oct-27 08:33N 38°21' W 009°02'1 0.6
2014-Oct-27 07:33N 38°21' W 009°01'0 0.5
2014-Oct-27 06:33N 38°21' W 009°00'0 0.3
2014-Oct-27 05:33N 38°21' W 009°00'1 1.3
2014-Oct-27 04:33N 38°21' W 009°02'9 8.1
2014-Oct-27 03:26N 38°21' W 009°13'7 7.4
2014-Oct-27 02:33N 38°23' W 009°21'8 7.9
2014-Oct-27 01:33N 38°26' W 009°31'  
2014-Oct-23 03:08N 50°09' W 002°09'100 9.5
2014-Oct-22 16:33N 50°36' E 000°22'1110.7
2014-Oct-22 15:33N 50°40' E 000°38'1110.8
2014-Oct-22 14:33N 50°46' E 000°52'27 9.1
2014-Oct-22 11:33N 51°03' E 001°26'8 7.9
2014-Oct-22 10:33N 51°08' E 001°35'9 8.7
2014-Oct-22 09:34N 51°14' E 001°45'1010.4
2014-Oct-22 08:33N 51°23' E 001°53'1110.6
2014-Oct-22 07:33N 51°32' E 002°03'11 9.6
2014-Oct-22 06:26N 51°40' E 002°15'  
Track history (hours):
 
Tides and Currents Weather Stations Pressure Air Temp Water Temp Dewpoint Dewpoint Depression Visibility Wind Speed Wind Dir Waves Ship Positions

Janet

Last reported at 2014-Oct-31 22:06 UTC. Time now 2014-Nov-01 09:46 UTC.
Position N 38°31' W 008°52'.

Length 90 m; draft 6 m.

Type: Cargo ship. MMSI: 256371000.

Date/timePositionNaut miles runAvg speedWind from/ knotsBaromVisibWave heightAir tempDewpointWater temp
2014-Oct-31 22:06N 38°31' W 008°52'0 0.0
2014-Oct-31 21:33N 38°31' W 008°52'0 0.0
2014-Oct-31 08:33N 38°31' W 008°52'0 0.0
2014-Oct-31 06:33N 38°31' W 008°52'0 0.0
2014-Oct-31 05:18N 38°31' W 008°52'0 0.0
2014-Oct-31 04:30N 38°31' W 008°52'0 0.0
2014-Oct-31 03:33N 38°31' W 008°52'0 0.0
2014-Oct-31 02:33N 38°31' W 008°52'0 0.0
2014-Oct-31 01:33N 38°31' W 008°52'0 0.0
2014-Oct-31 00:33N 38°31' W 008°52'0 0.0
2014-Oct-30 23:33N 38°31' W 008°52'0 0.0
2014-Oct-30 22:33N 38°31' W 008°52'0 0.0
2014-Oct-30 21:18N 38°31' W 008°52'1 0.9
2014-Oct-30 20:33N 38°30' W 008°52'1 0.2
2014-Oct-30 16:12N 38°30' W 008°51'0 0.0
2014-Oct-30 15:33N 38°30' W 008°51'0 0.0
2014-Oct-30 08:33N 38°30' W 008°51'0 0.0
2014-Oct-30 07:33N 38°30' W 008°51'0 0.0
2014-Oct-30 05:33N 38°30' W 008°51'0 0.0
2014-Oct-30 04:33N 38°30' W 008°51'0 0.0
2014-Oct-30 03:33N 38°30' W 008°51'0 0.0
2014-Oct-30 02:24N 38°30' W 008°51'0 0.0
2014-Oct-30 01:30N 38°30' W 008°51'0 0.0
2014-Oct-30 00:21N 38°30' W 008°51'0 0.0
2014-Oct-29 23:33N 38°30' W 008°51'0 0.0
2014-Oct-29 22:33N 38°30' W 008°51'3 2.3
2014-Oct-29 21:24N 38°31' W 008°54'0 0.0
2014-Oct-29 20:24N 38°31' W 008°54'0 0.0
2014-Oct-29 19:33N 38°31' W 008°54'0 0.1
2014-Oct-29 18:33N 38°31' W 008°54'0 0.0
2014-Oct-29 17:33N 38°31' W 008°54'0 0.0
2014-Oct-29 05:33N 38°31' W 008°54'0 0.0
2014-Oct-29 02:33N 38°31' W 008°54'0 0.0
2014-Oct-29 01:33N 38°31' W 008°54'0 0.0
2014-Oct-28 23:33N 38°31' W 008°54'0 0.0
2014-Oct-28 21:30N 38°31' W 008°54'0 0.0
2014-Oct-28 20:12N 38°31' W 008°54'0 0.0
2014-Oct-28 11:12N 38°31' W 008°54'0 0.0
2014-Oct-28 07:21N 38°31' W 008°54'0 0.0
2014-Oct-28 06:33N 38°31' W 008°54'0 0.1
2014-Oct-28 05:33N 38°31' W 008°54'0 0.0
2014-Oct-28 02:18N 38°31' W 008°54'0 0.0
2014-Oct-28 01:33N 38°31' W 008°54'0 0.0
2014-Oct-28 00:30N 38°31' W 008°54'0 0.0
2014-Oct-27 22:33N 38°31' W 008°54'0 0.0
2014-Oct-27 21:33N 38°31' W 008°54'0 0.0
2014-Oct-27 20:33N 38°31' W 008°54'0 0.0
2014-Oct-27 19:30N 38°31' W 008°54'0 0.0
2014-Oct-27 18:33N 38°31' W 008°54'0 0.1
2014-Oct-27 17:33N 38°31' W 008°54'0 0.0
2014-Oct-27 16:30N 38°31' W 008°54'0 0.0
2014-Oct-27 15:30N 38°31' W 008°54'0 0.0
2014-Oct-27 14:33N 38°31' W 008°54'7 6.5
2014-Oct-27 13:32N 38°26' W 008°60'3 3.0
2014-Oct-27 12:33N 38°23' W 009°02'3 3.3
2014-Oct-27 11:31N 38°20' W 009°04'0 0.5
2014-Oct-27 10:33N 38°20' W 009°03'1 0.6
2014-Oct-27 09:33N 38°21' W 009°03'1 0.5
2014-Oct-27 08:33N 38°21' W 009°02'1 0.6
2014-Oct-27 07:33N 38°21' W 009°01'0 0.5
2014-Oct-27 06:33N 38°21' W 009°00'0 0.3
2014-Oct-27 05:33N 38°21' W 009°00'1 1.3
2014-Oct-27 04:33N 38°21' W 009°02'9 8.1
2014-Oct-27 03:26N 38°21' W 009°13'7 7.4
2014-Oct-27 02:33N 38°23' W 009°21'8 7.9
2014-Oct-27 01:33N 38°26' W 009°31'  
2014-Oct-23 03:08N 50°09' W 002°09'100 9.5
2014-Oct-22 16:33N 50°36' E 000°22'1110.7
2014-Oct-22 15:33N 50°40' E 000°38'1110.8
2014-Oct-22 14:33N 50°46' E 000°52'27 9.1
2014-Oct-22 11:33N 51°03' E 001°26'8 7.9
2014-Oct-22 10:33N 51°08' E 001°35'9 8.7
2014-Oct-22 09:34N 51°14' E 001°45'1010.4
2014-Oct-22 08:33N 51°23' E 001°53'1110.6
2014-Oct-22 07:33N 51°32' E 002°03'11 9.6
2014-Oct-22 06:26N 51°40' E 002°15'  

Dump ship's entire track history